createdAt,value
2019-05-26T00:00:18.135Z,21.80
2019-05-26T00:30:31.057Z,14.25
2019-05-26T00:45:37.876Z,13.45
2019-05-26T01:00:45.733Z,14.78
2019-05-26T01:15:52.631Z,16.45
2019-05-26T01:31:01.314Z,16.50
2019-05-26T01:46:08.797Z,13.40
2019-05-26T02:01:16.359Z,13.90
2019-05-26T02:16:23.957Z,12.53
2019-05-26T02:31:30.863Z,12.68
2019-05-26T02:46:37.814Z,15.05
2019-05-26T03:02:02.373Z,11.15
2019-05-26T03:16:59.875Z,16.23
2019-05-26T03:32:07.588Z,14.20
2019-05-26T03:47:17.833Z,16.02
2019-05-26T04:02:25.704Z,15.23
2019-05-26T04:17:34.293Z,14.53
2019-05-26T04:32:41.344Z,13.35
2019-05-26T05:02:57.677Z,10.93
2019-05-26T05:18:05.352Z,9.55
2019-05-26T05:33:12.370Z,7.33
2019-05-26T05:48:20.549Z,7.97
2019-05-26T06:03:28.224Z,10.10
2019-05-26T06:18:36.948Z,9.10
2019-05-26T06:33:45.079Z,7.08
2019-05-26T06:48:53.676Z,11.40
2019-05-26T07:04:00.808Z,10.95
2019-05-26T07:19:07.651Z,11.18
2019-05-26T07:34:15.485Z,10.20
2019-05-26T07:49:23.469Z,9.23
2019-05-26T08:04:31.834Z,10.55
2019-05-26T08:19:38.697Z,7.60
2019-05-26T08:34:46.385Z,8.90
2019-05-26T08:49:53.924Z,7.08
2019-05-26T09:05:00.836Z,6.97
2019-05-26T09:20:11.780Z,6.85
2019-05-26T09:35:19.760Z,6.67
2019-05-26T09:50:30.097Z,12.30
2019-05-26T10:05:36.923Z,6.03
2019-05-26T10:20:44.510Z,7.65
2019-05-26T10:35:51.186Z,10.68
2019-05-26T10:50:58.914Z,6.47
2019-05-26T11:06:09.065Z,8.75
2019-05-26T11:21:15.961Z,6.03
2019-05-26T11:36:23.139Z,5.65
2019-05-26T11:51:29.813Z,6.03
2019-05-26T12:06:36.579Z,5.40
2019-05-26T12:21:43.815Z,8.80
2019-05-26T12:36:50.579Z,7.30
2019-05-26T12:51:57.672Z,7.17
2019-05-26T13:07:11.692Z,5.83
2019-05-26T13:22:19.628Z,6.45
2019-05-26T13:37:27.499Z,4.42
2019-05-26T13:52:34.215Z,3.60
2019-05-26T14:07:42.867Z,5.30
2019-05-26T14:22:49.852Z,5.22
2019-05-26T14:37:57.853Z,4.53
2019-05-26T14:53:06.583Z,4.15
2019-05-26T15:08:15.230Z,3.70
2019-05-26T15:23:25.261Z,4.67
2019-05-26T15:38:42.470Z,7.00
2019-05-26T15:53:42.514Z,6.22
2019-05-26T16:08:50.046Z,7.47
2019-05-26T16:23:58.518Z,5.17
2019-05-26T16:39:34.352Z,8.23
2019-05-26T17:09:52.977Z,5.83
2019-05-26T17:25:00.118Z,5.55
2019-05-26T17:40:26.871Z,6.50
2019-05-26T17:55:34.400Z,8.15
2019-05-26T18:10:41.806Z,7.97
2019-05-26T18:25:49.155Z,7.12
2019-05-26T18:40:57.877Z,8.45
2019-05-26T18:56:07.010Z,10.68
2019-05-26T19:11:17.726Z,11.18
2019-05-26T19:26:26.685Z,7.78
2019-05-26T19:41:34.217Z,12.45
2019-05-26T19:56:41.980Z,8.55
2019-05-26T20:12:08.372Z,9.70
2019-05-26T20:27:15.575Z,7.05
2019-05-26T20:59:53.701Z,6.75
2019-05-26T21:15:01.273Z,9.25
2019-05-26T21:45:37.074Z,10.65
2019-05-26T22:00:46.281Z,9.90
2019-05-26T22:15:53.408Z,7.17
2019-05-26T22:31:04.630Z,14.10
2019-05-26T22:46:11.906Z,8.70
2019-05-26T23:01:21.387Z,10.30
2019-05-26T23:16:29.419Z,14.30
2019-05-26T23:31:36.569Z,26.37
2019-05-26T23:46:44.097Z,11.88
